createdAt,value
2018-10-07T00:00:51.813Z,100.00
2018-10-07T00:03:26.028Z,100.00
2018-10-07T00:06:00.041Z,100.00
2018-10-07T00:08:33.963Z,100.00
2018-10-07T00:11:09.630Z,100.00
2018-10-07T00:13:43.833Z,100.00
2018-10-07T00:16:17.642Z,100.00
2018-10-07T00:18:51.650Z,100.00
2018-10-07T00:21:25.457Z,100.00
2018-10-07T00:23:59.414Z,100.00
2018-10-07T00:26:34.915Z,100.00
2018-10-07T00:29:08.532Z,100.00
2018-10-07T00:31:48.401Z,100.00
2018-10-07T00:34:23.582Z,100.00
2018-10-07T00:36:58.457Z,100.00
2018-10-07T00:39:32.821Z,100.00
2018-10-07T00:42:07.856Z,100.00
2018-10-07T00:44:43.746Z,100.00
2018-10-07T00:47:18.033Z,100.00
2018-10-07T00:49:52.315Z,100.00
2018-10-07T00:52:27.101Z,100.00
2018-10-07T00:54:55.700Z,100.00
2018-10-07T00:57:24.301Z,100.00
2018-10-07T00:59:58.248Z,100.00
2018-10-07T01:02:32.141Z,100.00
2018-10-07T01:05:06.728Z,100.00
2018-10-07T01:07:42.364Z,100.00
2018-10-07T01:10:15.922Z,100.00
2018-10-07T01:12:50.320Z,100.00
2018-10-07T01:15:23.755Z,100.00
2018-10-07T01:17:59.537Z,100.00
2018-10-07T01:20:30.417Z,100.00
2018-10-07T01:23:05.496Z,100.00
2018-10-07T01:25:39.506Z,100.00
2018-10-07T01:28:13.855Z,100.00
2018-10-07T01:30:42.659Z,100.00
2018-10-07T01:33:17.140Z,100.00
2018-10-07T01:35:51.015Z,100.00
2018-10-07T01:38:25.424Z,100.00
2018-10-07T01:40:59.585Z,100.00
2018-10-07T01:43:33.568Z,100.00
2018-10-07T01:46:08.853Z,100.00
2018-10-07T01:48:42.882Z,100.00
2018-10-07T01:51:17.189Z,100.00
2018-10-07T01:53:52.826Z,100.00
2018-10-07T01:56:26.757Z,100.00
2018-10-07T01:59:01.726Z,100.00
2018-10-07T02:01:35.469Z,100.00
2018-10-07T02:04:04.174Z,100.00
2018-10-07T02:06:38.403Z,100.00
2018-10-07T02:09:13.738Z,100.00
2018-10-07T02:11:47.328Z,100.00
2018-10-07T02:14:21.991Z,100.00
2018-10-07T02:16:55.297Z,100.00
2018-10-07T02:19:30.036Z,100.00
2018-10-07T02:22:05.300Z,100.00
2018-10-07T02:24:39.415Z,100.00
2018-10-07T02:27:13.045Z,100.00
2018-10-07T02:29:47.164Z,100.00
2018-10-07T02:32:21.194Z,100.00
2018-10-07T02:34:55.813Z,100.00
2018-10-07T02:37:24.556Z,100.00
2018-10-07T02:39:59.850Z,100.00
2018-10-07T02:42:33.992Z,100.00
2018-10-07T02:45:07.700Z,100.00
2018-10-07T02:47:41.820Z,100.00
2018-10-07T02:50:23.966Z,100.00
2018-10-07T02:53:00.428Z,100.00
2018-10-07T02:55:36.990Z,100.00
2018-10-07T02:58:12.327Z,100.00
2018-10-07T03:00:46.136Z,100.00
2018-10-07T03:03:20.889Z,100.00
2018-10-07T03:05:56.740Z,100.00
2018-10-07T03:08:30.295Z,100.00
2018-10-07T03:10:58.829Z,100.00
2018-10-07T03:13:33.986Z,100.00
2018-10-07T03:16:08.982Z,100.00
2018-10-07T03:18:47.313Z,100.00
2018-10-07T03:21:26.510Z,100.00
2018-10-07T03:24:00.791Z,100.00
2018-10-07T03:26:34.613Z,100.00
2018-10-07T03:29:08.667Z,100.00
2018-10-07T03:31:42.523Z,100.00
2018-10-07T03:34:16.949Z,100.00
2018-10-07T03:36:51.463Z,100.00
2018-10-07T03:39:25.430Z,100.00
2018-10-07T03:41:59.553Z,100.00
2018-10-07T03:44:34.544Z,100.00
2018-10-07T03:47:09.057Z,100.00
2018-10-07T03:49:43.554Z,100.00
2018-10-07T03:52:17.892Z,100.00
2018-10-07T03:54:51.924Z,100.00
2018-10-07T03:57:25.775Z,100.00
2018-10-07T04:00:02.537Z,100.00
2018-10-07T04:02:36.465Z,100.00
2018-10-07T04:05:11.683Z,100.00
2018-10-07T04:07:46.016Z,100.00
2018-10-07T04:10:20.392Z,100.00
2018-10-07T04:12:54.487Z,100.00
2018-10-07T04:15:23.313Z,100.00
2018-10-07T04:17:57.374Z,100.00
2018-10-07T04:20:32.566Z,100.00
2018-10-07T04:23:07.072Z,100.00
2018-10-07T04:25:41.029Z,100.00
2018-10-07T04:28:15.155Z,100.00
2018-10-07T04:37:48.419Z,100.00
2018-10-07T04:40:22.852Z,100.00
2018-10-07T04:42:57.679Z,100.00
2018-10-07T04:45:32.027Z,100.00
2018-10-07T04:48:00.801Z,100.00
2018-10-07T04:50:34.482Z,100.00
2018-10-07T04:53:10.060Z,100.00
2018-10-07T04:55:44.494Z,100.00
2018-10-07T04:58:19.565Z,100.00
2018-10-07T05:00:53.920Z,100.00
2018-10-07T05:03:29.880Z,100.00
2018-10-07T05:06:05.271Z,100.00
2018-10-07T05:08:39.414Z,100.00
2018-10-07T05:11:14.642Z,100.00
2018-10-07T05:13:56.040Z,100.00
2018-10-07T05:16:41.903Z,100.00
2018-10-07T05:19:10.672Z,100.00
2018-10-07T05:21:39.252Z,100.00
2018-10-07T05:24:13.146Z,100.00
2018-10-07T05:26:46.982Z,100.00
2018-10-07T05:29:20.762Z,100.00
2018-10-07T05:31:55.678Z,100.00
2018-10-07T05:34:31.423Z,100.00
2018-10-07T05:37:07.090Z,100.00
2018-10-07T05:39:44.320Z,100.00
2018-10-07T05:42:21.351Z,100.00
2018-10-07T05:44:57.854Z,100.00
2018-10-07T05:47:34.855Z,100.00
2018-10-07T05:50:09.873Z,100.00
2018-10-07T05:52:38.532Z,100.00
2018-10-07T05:55:07.116Z,100.00
2018-10-07T05:57:41.111Z,100.00
2018-10-07T06:00:18.566Z,100.00
2018-10-07T06:02:54.464Z,100.00
2018-10-07T06:05:29.714Z,100.00
2018-10-07T06:08:04.195Z,100.00
2018-10-07T06:10:38.598Z,100.00
2018-10-07T06:13:12.934Z,100.00
2018-10-07T06:15:49.550Z,100.00
2018-10-07T06:18:24.140Z,100.00
2018-10-07T06:20:57.912Z,100.00
2018-10-07T06:23:33.169Z,100.00
2018-10-07T06:26:07.428Z,100.00
2018-10-07T06:28:42.082Z,100.00
2018-10-07T06:31:16.408Z,100.00
2018-10-07T06:33:52.175Z,100.00
2018-10-07T06:36:26.289Z,100.00
2018-10-07T06:39:01.200Z,100.00
2018-10-07T06:41:36.002Z,100.00
2018-10-07T06:44:09.766Z,100.00
2018-10-07T06:46:43.832Z,100.00
2018-10-07T06:49:18.277Z,100.00
2018-10-07T06:51:52.898Z,100.00
2018-10-07T06:54:27.095Z,100.00
2018-10-07T06:57:00.998Z,100.00
2018-10-07T06:59:37.210Z,100.00
2018-10-07T07:02:11.533Z,100.00
2018-10-07T07:04:46.527Z,100.00
2018-10-07T07:07:19.957Z,100.00
2018-10-07T07:09:57.214Z,100.00
2018-10-07T07:12:33.369Z,100.00
2018-10-07T07:15:07.454Z,100.00
2018-10-07T07:17:42.299Z,100.00
2018-10-07T07:20:16.752Z,100.00
2018-10-07T07:22:51.076Z,100.00
2018-10-07T07:25:25.949Z,100.00
2018-10-07T07:28:00.655Z,100.00
2018-10-07T07:30:34.660Z,100.00
2018-10-07T07:33:08.065Z,99.94
2018-10-07T07:35:42.489Z,99.25
2018-10-07T07:38:16.587Z,96.62
2018-10-07T07:40:51.625Z,95.94
2018-10-07T07:43:25.337Z,95.04
2018-10-07T07:45:59.397Z,95.39
2018-10-07T07:48:28.812Z,96.96
2018-10-07T07:50:58.528Z,96.57
2018-10-07T07:53:32.788Z,96.42
2018-10-07T07:56:11.809Z,95.62
2018-10-07T07:58:46.138Z,95.36
2018-10-07T08:01:20.157Z,95.44
2018-10-07T08:03:56.838Z,94.36
2018-10-07T08:06:31.440Z,93.31
2018-10-07T08:09:07.319Z,92.21
2018-10-07T08:11:42.687Z,91.88
2018-10-07T08:14:17.975Z,91.27
2018-10-07T08:16:51.693Z,91.03
2018-10-07T08:19:25.056Z,90.74
2018-10-07T08:21:54.062Z,90.49
2018-10-07T08:24:29.585Z,90.84
2018-10-07T08:27:05.579Z,89.52
2018-10-07T08:29:42.160Z,89.02
2018-10-07T08:32:16.925Z,88.74
2018-10-07T08:34:53.562Z,87.67
2018-10-07T08:37:27.029Z,87.14
2018-10-07T08:40:01.021Z,86.29
2018-10-07T08:42:35.140Z,85.95
2018-10-07T08:45:09.841Z,85.16
2018-10-07T08:47:46.216Z,85.11
2018-10-07T08:50:20.628Z,84.55
2018-10-07T08:52:54.766Z,84.38
2018-10-07T08:55:28.833Z,84.30
2018-10-07T08:58:03.664Z,83.87
2018-10-07T09:00:38.563Z,83.81
2018-10-07T09:03:16.004Z,83.75
2018-10-07T09:05:52.736Z,83.84
2018-10-07T09:08:22.118Z,83.98
2018-10-07T09:10:51.010Z,82.86
2018-10-07T09:13:19.653Z,83.03
2018-10-07T09:15:48.435Z,82.63
2018-10-07T09:18:17.665Z,83.35
2018-10-07T09:20:46.750Z,82.71
2018-10-07T09:23:15.866Z,82.22
2018-10-07T09:25:44.449Z,81.60
2018-10-07T09:28:13.337Z,82.04
2018-10-07T09:30:41.918Z,81.72
2018-10-07T09:33:10.493Z,81.09
2018-10-07T09:35:39.070Z,80.78
2018-10-07T09:38:08.004Z,80.79
2018-10-07T09:40:36.601Z,80.40
2018-10-07T09:43:05.181Z,80.78
2018-10-07T09:45:33.766Z,79.71
2018-10-07T09:48:02.362Z,79.46
2018-10-07T09:50:30.951Z,79.22
2018-10-07T09:52:59.772Z,79.93
2018-10-07T09:55:28.560Z,79.58
2018-10-07T09:57:57.435Z,78.89
2018-10-07T10:00:31.730Z,79.03
2018-10-07T10:03:00.281Z,78.29
2018-10-07T10:05:28.876Z,79.13
2018-10-07T10:08:04.592Z,77.98
2018-10-07T10:10:40.772Z,78.54
2018-10-07T10:13:18.244Z,77.61
2018-10-07T10:15:53.093Z,78.69
2018-10-07T10:18:41.826Z,78.33
2018-10-07T10:21:41.282Z,78.61
2018-10-07T10:24:37.401Z,78.63
2018-10-07T10:27:16.951Z,79.23
2018-10-07T10:29:53.939Z,79.12
2018-10-07T10:32:46.870Z,79.16
2018-10-07T10:35:33.765Z,79.51
2018-10-07T10:38:23.733Z,79.51
2018-10-07T10:41:17.863Z,80.00
2018-10-07T10:43:55.961Z,80.36
2018-10-07T10:47:09.326Z,80.19
2018-10-07T10:49:56.733Z,80.03
2018-10-07T10:52:34.355Z,81.14
2018-10-07T10:55:19.376Z,80.56
2018-10-07T10:57:58.105Z,80.43
2018-10-07T11:01:08.699Z,80.68
2018-10-07T11:03:57.944Z,79.60
2018-10-07T11:06:38.963Z,78.70
2018-10-07T11:09:32.753Z,78.37
2018-10-07T11:12:12.456Z,78.06
2018-10-07T11:15:02.380Z,77.84
2018-10-07T11:17:48.727Z,77.06
2018-10-07T11:20:29.613Z,77.64
2018-10-07T11:23:11.351Z,77.25
2018-10-07T11:26:24.844Z,76.79
2018-10-07T11:29:52.413Z,76.43
2018-10-07T11:32:38.778Z,77.11
2018-10-07T11:35:23.345Z,76.21
2018-10-07T11:38:08.003Z,76.74
2018-10-07T11:41:53.691Z,76.95
2018-10-07T11:45:39.945Z,77.26
2018-10-07T11:49:25.702Z,77.09
2018-10-07T11:54:04.677Z,76.93
2018-10-07T11:56:40.155Z,74.50
2018-10-07T11:59:13.889Z,74.43
2018-10-07T12:01:49.749Z,73.88
2018-10-07T12:04:27.204Z,73.96
2018-10-07T12:07:02.148Z,73.11
2018-10-07T12:09:36.500Z,73.68
2018-10-07T12:12:10.701Z,73.79
2018-10-07T12:14:45.283Z,72.77
2018-10-07T12:17:19.448Z,72.52
2018-10-07T12:19:56.188Z,72.78
2018-10-07T12:22:30.084Z,73.27
2018-10-07T12:25:04.550Z,72.91
2018-10-07T12:27:37.983Z,72.71
2018-10-07T12:30:13.131Z,72.84
2018-10-07T12:32:51.173Z,72.95
2018-10-07T12:35:28.612Z,72.31
2018-10-07T12:38:07.347Z,72.68
2018-10-07T12:40:46.139Z,71.76
2018-10-07T12:43:23.466Z,71.85
2018-10-07T12:46:03.039Z,71.48
2018-10-07T12:48:39.061Z,71.73
2018-10-07T12:51:15.503Z,71.42
2018-10-07T12:53:53.147Z,71.90
2018-10-07T12:56:28.040Z,72.07
2018-10-07T12:59:04.263Z,72.87
2018-10-07T13:01:37.918Z,71.99
2018-10-07T13:04:13.369Z,72.13
2018-10-07T13:06:50.515Z,72.51
2018-10-07T13:09:25.393Z,72.05
2018-10-07T13:12:03.902Z,72.80
2018-10-07T13:14:41.098Z,71.72
2018-10-07T13:17:13.970Z,71.87
2018-10-07T13:19:50.130Z,71.86
2018-10-07T13:22:24.681Z,72.14
2018-10-07T13:25:00.334Z,72.23
2018-10-07T13:27:33.993Z,72.31
2018-10-07T13:30:07.804Z,72.46
2018-10-07T13:32:40.326Z,71.10
2018-10-07T13:35:14.813Z,71.47
2018-10-07T13:37:48.705Z,69.92
2018-10-07T13:40:23.065Z,70.18
2018-10-07T13:42:59.218Z,70.42
2018-10-07T13:45:34.336Z,69.72
2018-10-07T13:48:09.079Z,71.81
2018-10-07T13:50:43.910Z,70.39
2018-10-07T13:53:21.340Z,70.42
2018-10-07T13:56:00.677Z,69.79
2018-10-07T13:58:36.762Z,68.30
2018-10-07T14:01:10.403Z,68.92
2018-10-07T14:03:46.188Z,69.84
2018-10-07T14:06:21.547Z,69.24
2018-10-07T14:08:55.397Z,69.08
2018-10-07T14:11:29.828Z,68.63
2018-10-07T14:14:04.641Z,68.98
2018-10-07T14:16:40.301Z,68.35
2018-10-07T14:19:15.842Z,67.70
2018-10-07T14:21:50.882Z,69.12
2018-10-07T14:24:24.773Z,69.98
2018-10-07T14:26:59.609Z,70.40
2018-10-07T14:29:35.142Z,70.18
2018-10-07T14:32:10.106Z,70.48
2018-10-07T14:34:45.185Z,71.60
2018-10-07T14:37:19.298Z,72.45
2018-10-07T14:39:54.364Z,73.96
2018-10-07T14:42:28.258Z,73.18
2018-10-07T14:45:02.060Z,73.45
2018-10-07T14:47:38.031Z,73.28
2018-10-07T14:50:11.634Z,73.87
2018-10-07T14:52:48.270Z,73.03
2018-10-07T14:55:17.117Z,73.39
2018-10-07T14:57:45.636Z,73.53
2018-10-07T15:00:14.184Z,72.37
2018-10-07T15:02:42.764Z,72.72
2018-10-07T15:05:11.313Z,74.20
2018-10-07T15:07:39.963Z,74.93
2018-10-07T15:10:08.552Z,75.14
2018-10-07T15:12:37.203Z,74.79
2018-10-07T15:15:05.873Z,75.59
2018-10-07T15:17:34.412Z,76.33
2018-10-07T15:20:03.017Z,77.41
2018-10-07T15:22:37.667Z,76.90
2018-10-07T15:25:09.265Z,77.92
2018-10-07T15:27:37.944Z,77.57
2018-10-07T15:30:06.808Z,77.92
2018-10-07T15:32:35.429Z,78.00
2018-10-07T15:35:04.032Z,77.67
2018-10-07T15:37:32.554Z,76.27
2018-10-07T15:40:01.121Z,75.88
2018-10-07T15:42:29.636Z,76.86
2018-10-07T15:44:58.194Z,76.71
2018-10-07T15:47:26.763Z,75.98
2018-10-07T15:49:55.396Z,75.83
2018-10-07T15:52:23.929Z,77.26
2018-10-07T15:54:52.484Z,76.97
2018-10-07T15:57:21.040Z,77.45
2018-10-07T15:59:49.597Z,77.63
2018-10-07T16:02:19.208Z,77.36
2018-10-07T16:04:47.789Z,77.83
2018-10-07T16:07:16.317Z,76.97
2018-10-07T16:09:45.707Z,79.04
2018-10-07T16:12:14.260Z,79.49
2018-10-07T16:14:42.924Z,80.28
2018-10-07T16:17:11.452Z,81.40
2018-10-07T16:19:40.064Z,81.64
2018-10-07T16:22:08.616Z,82.36
2018-10-07T16:24:37.169Z,81.84
2018-10-07T16:27:06.109Z,82.63
2018-10-07T16:29:39.811Z,83.14
2018-10-07T16:32:13.417Z,83.40
2018-10-07T16:34:50.095Z,84.05
2018-10-07T16:37:25.068Z,85.95
2018-10-07T16:39:59.662Z,86.12
2018-10-07T16:42:34.170Z,87.31
2018-10-07T16:45:07.029Z,87.01
2018-10-07T16:47:40.734Z,87.57
2018-10-07T16:50:15.313Z,87.08
2018-10-07T16:52:54.425Z,88.59
2018-10-07T16:55:29.414Z,87.94
2018-10-07T16:58:08.971Z,88.75
2018-10-07T17:00:43.007Z,89.26
2018-10-07T17:03:19.013Z,89.05
2018-10-07T17:05:55.430Z,89.49
2018-10-07T17:08:31.293Z,89.95
2018-10-07T17:11:10.081Z,89.93
2018-10-07T17:13:44.178Z,91.07
2018-10-07T17:16:19.468Z,91.11
2018-10-07T17:18:53.610Z,90.19
2018-10-07T17:21:28.146Z,91.30
2018-10-07T17:24:03.286Z,92.07
2018-10-07T17:26:36.423Z,92.16
2018-10-07T17:29:15.026Z,92.38
2018-10-07T17:34:31.700Z,92.74
2018-10-07T17:37:06.842Z,92.25
2018-10-07T17:39:40.722Z,92.38
2018-10-07T17:42:18.626Z,92.61
2018-10-07T17:44:58.157Z,92.58
2018-10-07T17:47:33.626Z,92.60
2018-10-07T17:50:08.226Z,93.28
2018-10-07T17:52:42.520Z,92.71
2018-10-07T17:55:17.166Z,92.04
2018-10-07T17:57:57.215Z,93.18
2018-10-07T18:00:28.597Z,94.01
2018-10-07T18:03:05.067Z,93.37
2018-10-07T18:05:44.447Z,93.29
2018-10-07T18:08:18.478Z,93.15
2018-10-07T18:10:55.456Z,93.02
2018-10-07T18:13:29.178Z,92.98
2018-10-07T18:16:07.246Z,93.09
2018-10-07T18:18:41.453Z,93.11
2018-10-07T18:21:17.263Z,93.36
2018-10-07T18:23:50.884Z,93.76
2018-10-07T18:26:24.894Z,94.50
2018-10-07T18:28:59.654Z,94.58
2018-10-07T18:31:34.319Z,95.34
2018-10-07T18:34:09.773Z,95.21
2018-10-07T18:36:44.109Z,95.58
2018-10-07T18:39:18.026Z,95.48
2018-10-07T18:41:53.664Z,95.53
2018-10-07T18:44:27.587Z,95.88
2018-10-07T18:47:03.499Z,96.35
2018-10-07T18:49:38.107Z,95.97
2018-10-07T18:52:13.596Z,95.24
2018-10-07T18:54:47.282Z,95.42
2018-10-07T18:57:23.959Z,95.36
2018-10-07T18:59:59.022Z,95.79
2018-10-07T19:02:43.642Z,95.02
2018-10-07T19:05:17.357Z,95.97
2018-10-07T19:07:52.326Z,96.40
2018-10-07T19:10:26.381Z,96.08
2018-10-07T19:13:00.137Z,95.26
2018-10-07T19:15:34.070Z,96.60
2018-10-07T19:18:08.682Z,97.29
2018-10-07T19:20:44.587Z,97.99
2018-10-07T19:23:15.952Z,97.75
2018-10-07T19:25:49.880Z,97.39
2018-10-07T19:28:23.786Z,99.24
2018-10-07T19:30:57.657Z,99.76
2018-10-07T19:33:32.383Z,100.00
2018-10-07T19:36:06.101Z,100.00
2018-10-07T19:38:40.344Z,100.00
2018-10-07T19:41:11.355Z,100.00
2018-10-07T19:43:44.940Z,100.00
2018-10-07T19:46:18.863Z,99.40
2018-10-07T19:48:54.267Z,99.55
2018-10-07T19:51:31.482Z,98.29
2018-10-07T19:54:18.872Z,99.62
2018-10-07T19:56:57.067Z,100.00
2018-10-07T19:59:33.435Z,99.24
2018-10-07T20:02:11.076Z,99.32
2018-10-07T20:04:49.574Z,99.94
2018-10-07T20:07:24.483Z,99.85
2018-10-07T20:10:04.581Z,100.00
2018-10-07T20:12:42.571Z,99.58
2018-10-07T20:15:19.831Z,98.21
2018-10-07T20:17:58.081Z,97.77
2018-10-07T20:20:38.731Z,98.54
2018-10-07T20:23:08.357Z,98.91
2018-10-07T20:25:37.700Z,99.05
2018-10-07T20:28:06.505Z,100.00
2018-10-07T20:30:36.119Z,100.00
2018-10-07T20:33:04.957Z,100.00
2018-10-07T20:35:33.938Z,99.73
2018-10-07T20:38:02.548Z,100.00
2018-10-07T20:40:31.756Z,100.00
2018-10-07T20:43:00.601Z,100.00
2018-10-07T20:45:29.584Z,100.00
2018-10-07T20:47:58.152Z,100.00
2018-10-07T20:50:26.881Z,99.76
2018-10-07T20:52:55.873Z,100.00
2018-10-07T20:55:24.665Z,100.00
2018-10-07T20:57:53.755Z,99.92
2018-10-07T21:00:22.629Z,100.00
2018-10-07T21:02:51.752Z,100.00
2018-10-07T21:05:20.296Z,100.00
2018-10-07T21:07:49.152Z,100.00
2018-10-07T21:10:18.009Z,100.00
2018-10-07T21:12:46.584Z,100.00
2018-10-07T21:15:15.112Z,100.00
2018-10-07T21:17:43.816Z,100.00
2018-10-07T21:20:12.381Z,100.00
2018-10-07T21:22:41.356Z,100.00
2018-10-07T21:25:09.972Z,100.00
2018-10-07T21:27:38.570Z,100.00
2018-10-07T21:30:07.320Z,100.00
2018-10-07T21:32:35.841Z,100.00
2018-10-07T21:35:04.446Z,100.00
2018-10-07T21:37:33.118Z,100.00
2018-10-07T21:40:02.512Z,100.00
2018-10-07T21:42:31.053Z,100.00
2018-10-07T21:44:59.703Z,100.00
2018-10-07T21:47:28.257Z,100.00
2018-10-07T21:49:58.051Z,100.00
2018-10-07T21:52:28.150Z,100.00
2018-10-07T21:54:56.770Z,100.00
2018-10-07T21:57:29.878Z,100.00
2018-10-07T21:59:58.823Z,100.00
2018-10-07T22:02:27.789Z,100.00
2018-10-07T22:04:56.343Z,100.00
2018-10-07T22:07:24.908Z,100.00
2018-10-07T22:09:53.495Z,100.00
2018-10-07T22:12:22.157Z,100.00
2018-10-07T22:14:50.685Z,100.00
2018-10-07T22:17:19.252Z,100.00
2018-10-07T22:19:47.903Z,100.00
2018-10-07T22:22:16.435Z,100.00
2018-10-07T22:24:44.990Z,100.00
2018-10-07T22:27:13.569Z,100.00
2018-10-07T22:29:42.118Z,100.00
2018-10-07T22:32:10.693Z,100.00
2018-10-07T22:34:39.247Z,100.00
2018-10-07T22:37:07.820Z,100.00
2018-10-07T22:39:36.356Z,100.00
2018-10-07T22:42:04.905Z,100.00
2018-10-07T22:44:33.484Z,100.00
2018-10-07T22:47:02.137Z,100.00
2018-10-07T22:49:30.733Z,100.00
2018-10-07T22:51:59.286Z,100.00
2018-10-07T22:54:27.874Z,100.00
2018-10-07T22:56:56.437Z,100.00
2018-10-07T22:59:25.021Z,100.00
2018-10-07T23:01:53.619Z,100.00
2018-10-07T23:04:22.203Z,100.00
2018-10-07T23:06:50.760Z,100.00
2018-10-07T23:09:19.339Z,100.00
2018-10-07T23:11:47.940Z,100.00
2018-10-07T23:14:16.592Z,100.00
2018-10-07T23:16:45.128Z,100.00
2018-10-07T23:19:13.680Z,100.00
2018-10-07T23:21:42.240Z,100.00
2018-10-07T23:24:11.569Z,100.00
2018-10-07T23:26:40.133Z,100.00
2018-10-07T23:29:08.659Z,100.00
2018-10-07T23:31:37.217Z,100.00
2018-10-07T23:34:05.753Z,100.00
2018-10-07T23:36:34.313Z,100.00
2018-10-07T23:39:02.848Z,100.00
2018-10-07T23:41:31.442Z,100.00
2018-10-07T23:43:59.958Z,100.00
2018-10-07T23:46:28.502Z,100.00
2018-10-07T23:48:57.008Z,99.94
2018-10-07T23:51:25.544Z,99.78
2018-10-07T23:53:54.128Z,99.95
2018-10-07T23:56:22.715Z,100.00
2018-10-07T23:58:51.325Z,99.31
